Latest Weather Observations for Troughton Island

IDW60801

Issued at 8:32 pm WST Monday 8 February 2016 (issued every 30 minutes, with the page automatically refreshed every 10 minutes)

About weather observations | Map of weather stations | Latest weather observations for WA | Other Formats
Station Details ID: 001007 Name: TROUGHTON ISLAND Lat: -13.75 Lon: 126.15 Height: 6.0 m
Data from the previous 72 hours. | See also: Recent months at Troughton Island
Date/Time
WST
Temp
°C
App
Temp
°C
Dew
Point
Rel
Hum
%
Delta-T
°C
Wind Press
QNH
hPa
Press
MSL
hPa
Rain
since 9 am
mm
Dir
 
Spd
km/h
Gust
km/h
Spd
kts
Gust
kts
08/08:30pm 28.5 33.8 25.9 86 1.8 NW 9 9 5 5 1009.1 1009.0 0.0
08/08:00pm 28.8 33.8 26.0 85 2.0 NW 11 13 6 7 1008.7 1008.6 0.0
08/07:30pm 28.9 34.4 26.1 85 2.0 NW 9 11 5 6 1008.4 1008.3 0.0
08/07:00pm 29.5 34.2 26.1 82 2.4 NNW 13 15 7 8 1008.0 1007.9 0.0
08/06:30pm 29.7 33.9 25.9 80 2.7 NNW 15 17 8 9 1007.6 1007.5 0.0
08/06:00pm 30.0 33.7 25.7 78 3.1 NNW 17 19 9 10 1007.3 1007.2 0.0
08/05:30pm 31.0 34.9 26.0 74 3.6 NW 17 19 9 10 1007.0 1006.9 0.0
08/05:00pm 31.4 35.1 25.7 71 4.1 NW 17 19 9 10 1006.8 1006.7 0.0
08/04:30pm 31.9 35.3 25.2 67 4.7 NW 17 20 9 11 1006.6 1006.5 0.0
08/04:00pm 32.4 35.9 26.0 69 4.6 NW 19 20 10 11 1006.6 1006.5 0.0
08/03:30pm 32.4 35.9 25.5 67 4.9 NW 17 20 9 11 1006.6 1006.5 0.0
08/03:00pm 32.4 36.1 25.2 66 5.1 WNW 15 17 8 9 1006.6 1006.5 0.0
08/02:30pm 32.5 36.5 25.1 65 5.2 WNW 13 15 7 8 1006.9 1006.8 0.0
08/02:00pm 32.4 36.7 25.5 67 4.9 NW 13 17 7 9 1007.2 1007.1 0.0
08/01:30pm 32.7 36.8 25.2 64 5.3 WNW 13 15 7 8 1007.4 1007.3 0.0
08/01:00pm 32.3 36.2 24.9 65 5.2 NW 13 15 7 8 1007.7 1007.6 0.0
08/12:30pm 32.3 37.2 25.9 69 4.6 NW 11 15 6 8 1008.1 1008.0 0.0
08/12:00pm 31.9 35.9 25.0 67 4.9 WNW 13 15 7 8 1008.3 1008.2 0.0
08/11:30am 32.1 36.4 24.9 65 5.1 W 11 13 6 7 1008.5 1008.4 0.0
08/11:00am 31.9 36.5 24.7 65 5.1 W 9 13 5 7 1008.9 1008.8 0.0
08/10:30am 32.1 37.3 25.7 69 4.6 WSW 9 11 5 6 1009.3 1009.2 0.0
08/10:00am 31.5 37.3 26.1 73 3.9 WSW 7 11 4 6 1009.5 1009.4 0.0
08/09:30am 31.3 36.7 25.4 71 4.2 SW 7 9 4 5 1009.5 1009.4 0.0
08/09:00am 31.4 36.5 25.0 69 4.5 SW 7 9 4 5 1009.7 1009.6 0.0
08/08:30am 31.0 35.9 24.4 68 4.6 SW 6 9 3 5 1009.7 1009.6 0.0
08/08:00am 31.1 35.9 24.5 68 4.6 SSW 7 9 4 5 1009.6 1009.5 0.0
08/07:30am 30.7 35.3 24.1 68 4.6 S 7 9 4 5 1009.3 1009.2 0.0
08/07:00am 30.6 35.4 24.5 70 4.3 SE 7 9 4 5 1009.2 1009.1 0.0
08/06:30am 29.8 35.0 25.1 76 3.3 SSE 7 9 4 5 1009.1 1009.0 0.0
08/06:00am 28.3 33.6 25.3 84 2.1 SSE 7 7 4 4 1008.9 1008.8 0.0
08/05:30am 28.0 33.0 24.8 83 2.2 S 7 7 4 4 1008.7 1008.6 0.0
08/05:00am 27.8 32.7 24.6 83 2.2 S 7 9 4 5 1008.3 1008.2 0.0
08/04:30am 28.4 32.8 24.4 79 2.8 S 9 11 5 6 1008.3 1008.2 0.0
08/04:00am 28.0 32.4 24.4 81 2.5 S 9 9 5 5 1008.1 1008.0 0.0
08/03:30am 28.5 32.4 24.3 78 2.9 S 11 13 6 7 1008.0 1007.9 0.0
08/03:00am 28.4 32.3 24.8 81 2.5 SSE 13 15 7 8 1007.9 1007.8 0.0
08/02:30am 28.6 33.2 25.4 83 2.3 S 11 13 6 7 1008.0 1007.9 0.0
08/02:00am 28.8 33.0 26.0 85 2.0 S 15 17 8 9 1008.0 1007.9 0.0
08/01:30am 28.7 32.8 25.7 84 2.1 SSE 15 19 8 10 1008.3 1008.2 0.0
08/01:00am 28.8 33.2 26.2 86 1.9 SSE 15 17 8 9 1008.6 1008.5 0.0
08/12:30am 28.8 33.0 25.4 82 2.4 SSE 13 13 7 7 1008.9 1008.8 0.0
08/12:00am 28.8 33.3 25.2 81 2.5 SSE 11 13 6 7 1009.2 1009.1 0.0
 
Date/Time
WST
Temp
°C
App
Temp
°C
Dew
Point
Rel
Hum
%
Delta-T
°C
Wind Press
QNH
hPa
Press
MSL
hPa
Rain
since 9 am
mm
Dir
 
Spd
km/h
Gust
km/h
Spd
kts
Gust
kts
07/11:30pm 29.1 34.0 25.3 80 2.7 S 9 11 5 6 1009.5 1009.4 0.0
07/11:00pm 29.4 33.9 25.8 81 2.6 SSW 13 13 7 7 1009.6 1009.5 0.0
07/10:30pm 29.4 34.2 26.2 83 2.3 SSW 13 17 7 9 1009.7 1009.6 0.0
07/10:00pm 29.2 34.3 26.2 84 2.1 SSW 11 13 6 7 1009.8 1009.7 0.0
07/09:30pm 29.2 34.0 26.2 84 2.1 SW 13 15 7 8 1009.6 1009.5 0.0
07/09:00pm 29.3 34.0 26.1 83 2.3 SSW 13 15 7 8 1009.4 1009.3 0.0
07/08:30pm 29.5 33.2 26.3 83 2.3 SSW 19 22 10 12 1009.3 1009.2 0.0
07/08:00pm 29.9 33.8 26.9 84 2.2 SW 20 24 11 13 1009.3 1009.2 0.0
07/07:30pm 30.0 33.9 26.6 82 2.4 SW 19 22 10 12 1009.2 1009.1 0.0
07/07:00pm 30.0 34.1 26.4 81 2.6 WSW 17 20 9 11 1008.7 1008.6 0.0
07/06:30pm 30.3 33.8 26.0 78 3.1 WSW 19 20 10 11 1008.5 1008.4 0.0
07/06:00pm 30.5 34.7 25.3 74 3.7 W 13 17 7 9 1007.8 1007.7 0.0
07/05:30pm 31.0 35.1 25.8 74 3.7 W 15 17 8 9 1007.3 1007.2 0.0
07/05:00pm 31.5 34.7 24.9 68 4.7 WNW 17 20 9 11 1006.8 1006.7 0.0
07/04:30pm 31.7 35.0 25.1 68 4.7 NW 17 20 9 11 1006.2 1006.1 0.0
07/04:00pm 31.9 34.8 24.5 65 5.2 NW 17 20 9 11 1006.1 1006.0 0.0
07/03:30pm 32.2 35.9 25.8 69 4.6 NW 17 19 9 10 1006.0 1005.9 0.0
07/03:00pm 32.1 36.2 25.7 69 4.6 WNW 15 17 8 9 1006.1 1006.0 0.0
07/02:30pm 32.1 36.7 25.9 70 4.4 WNW 13 15 7 8 1006.4 1006.3 0.0
07/02:00pm 32.1 37.3 26.9 74 3.8 WNW 13 15 7 8 1006.8 1006.7 0.0
07/01:30pm 31.8 36.8 26.6 74 3.7 NW 13 17 7 9 1007.0 1006.9 0.0
07/01:00pm 31.3 36.5 26.3 75 3.6 NNW 11 15 6 8 1007.4 1007.3 0.0
07/12:30pm 31.0 36.6 26.3 76 3.4 NNW 9 13 5 7 1007.7 1007.6 0.0
07/12:00pm 31.2 36.7 26.2 75 3.6 NW 9 15 5 8 1008.0 1007.9 0.0
07/11:30am 31.2 37.2 26.0 74 3.7 WNW 6 7 3 4 1008.2 1008.1 0.0
07/11:00am 31.0 36.7 25.6 73 3.8 SSE 6 7 3 4 1008.4 1008.3 0.0
07/10:30am 30.5 36.2 25.6 75 3.5 SW 6 7 3 4 1008.9 1008.8 0.0
07/10:00am 31.6 37.3 26.4 74 3.7 SSE 9 13 5 7 1008.9 1008.8 0.0
07/09:30am 30.7 35.8 25.5 74 3.7 SE 9 13 5 7 1008.8 1008.7 0.0
07/09:00am 30.7 35.7 26.0 76 3.4 SSE 11 13 6 7 1008.8 1008.7 0.0
07/08:30am 30.6 35.9 25.9 76 3.3 SSE 9 11 5 6 1008.7 1008.6 0.0
07/08:00am 30.4 35.9 26.1 78 3.1 SSW 9 11 5 6 1008.6 1008.5 0.0
07/07:30am 30.0 35.1 25.5 77 3.2 SSW 9 11 5 6 1008.4 1008.3 0.0
07/07:00am 29.7 34.6 25.2 77 3.2 S 9 11 5 6 1008.2 1008.1 0.0
07/06:30am 29.0 34.8 26.0 84 2.1 SSE 7 9 4 5 1007.9 1007.8 0.0
07/06:00am 28.4 33.9 25.6 85 2.0 SW 7 9 4 5 1007.5 1007.4 0.0
07/05:30am 28.3 33.7 25.5 85 2.0 SW 7 9 4 5 1007.2 1007.1 0.0
07/05:00am 28.1 32.9 25.1 84 2.1 SW 9 11 5 6 1006.9 1006.8 0.0
07/04:30am 28.2 33.2 25.4 85 2.0 SW 9 11 5 6 1006.7 1006.6 0.0
07/04:00am 28.4 32.9 25.2 83 2.3 WSW 11 13 6 7 1006.6 1006.5 0.0
07/03:30am 28.4 32.6 24.8 81 2.5 WSW 11 13 6 7 1006.6 1006.5 0.0
07/03:00am 28.5 33.4 25.3 83 2.3 WSW 9 13 5 7 1006.5 1006.4 0.0
07/02:30am 28.4 33.4 24.8 81 2.5 SW 7 9 4 5 1006.5 1006.4 0.0
07/02:00am 28.4 33.1 25.0 82 2.4 WSW 9 11 5 6 1006.5 1006.4 0.0
07/01:30am 28.3 32.5 24.7 81 2.5 WSW 11 13 6 7 1006.5 1006.4 0.0
07/01:00am 28.2 33.3 25.0 83 2.2 SSW 7 9 4 5 1006.7 1006.6 0.0
07/12:30am 28.2 33.3 24.6 81 2.5 SSW 6 9 3 5 1006.9 1006.8 0.0
07/12:00am 28.1 32.8 23.9 78 2.9 SSW 6 7 3 4 1007.1 1007.0 0.0
 
Date/Time
WST
Temp
°C
App
Temp
°C
Dew
Point
Rel
Hum
%
Delta-T
°C
Wind Press
QNH
hPa
Press
MSL
hPa
Rain
since 9 am
mm
Dir
 
Spd
km/h
Gust
km/h
Spd
kts
Gust
kts
06/11:30pm 28.1 33.1 24.5 81 2.5 S 6 7 3 4 1007.5 1007.4 0.0
06/11:00pm 28.2 34.3 24.4 80 2.6 CALM 0 0 0 0 1008.0 1007.9 0.0
06/10:30pm 28.2 33.1 24.6 81 2.5 SE 7 9 4 5 1008.3 1008.2 0.0
06/10:00pm 28.4 33.5 25.0 82 2.4 SSE 7 9 4 5 1008.5 1008.4 0.0
06/09:30pm 28.3 33.5 25.1 83 2.2 SE 7 9 4 5 1008.4 1008.3 0.0
06/09:00pm 28.3 33.7 25.1 83 2.2 E 6 7 3 4 1008.1 1008.0 0.0
06/08:30pm 28.3 33.1 25.1 83 2.2 ESE 9 13 5 7 1008.1 1008.0 0.0
06/08:00pm 28.2 32.4 24.8 82 2.4 ESE 11 15 6 8 1008.1 1008.0 0.0
06/07:30pm 28.0 31.4 25.2 85 2.0 E 17 20 9 11 1007.8 1007.7 0.0
06/07:00pm 28.3 30.4 25.3 84 2.1 ESE 24 35 13 19 1007.7 1007.6 0.0
06/06:57pm 28.7 31.7 25.3 82 2.4 SSE 19 35 10 19 1007.6 1007.5 0.0
06/06:30pm 29.7 33.6 25.4 78 3.0 SW 15 17 8 9 1007.1 1007.0 0.0
06/06:00pm 29.8 33.6 25.3 77 3.2 WSW 15 19 8 10 1006.3 1006.2 0.0
06/05:30pm 30.1 33.0 25.4 76 3.3 WSW 20 24 11 13 1006.0 1005.9 0.0
06/05:00pm 30.5 32.8 25.6 75 3.5 W 24 28 13 15 1005.6 1005.5 0.0
06/04:30pm 30.8 32.8 26.3 77 3.2 W 28 33 15 18 1004.9 1004.8 0.0
06/04:00pm 31.0 32.6 25.8 74 3.7 W 28 33 15 18 1004.8 1004.7 0.0
06/03:30pm 31.2 33.2 25.8 73 3.8 W 26 30 14 16 1004.8 1004.7 0.0
06/03:00pm 31.5 34.1 26.1 73 3.9 W 24 28 13 15 1005.1 1005.0 0.0
06/02:30pm 31.6 33.8 25.5 70 4.3 W 24 28 13 15 1005.2 1005.1 0.0
06/02:00pm 31.9 33.9 24.5 65 5.2 W 22 26 12 14 1005.6 1005.5 0.0
06/01:30pm 31.8 34.3 25.4 69 4.5 W 22 26 12 14 1005.8 1005.7 0.0
06/01:00pm 31.7 34.9 25.8 71 4.2 W 20 26 11 14 1006.2 1006.1 0.0
06/12:30pm 32.2 34.7 24.8 65 5.2 WSW 20 26 11 14 1006.5 1006.4 0.0
06/12:00pm 32.0 34.5 25.3 67 4.8 W 22 26 12 14 1007.0 1006.9 0.0
06/11:30am 31.9 34.2 25.7 69 4.4 W 24 30 13 16 1007.4 1007.3 0.0
06/11:00am 31.6 33.9 25.0 68 4.7 W 22 26 12 14 1007.7 1007.6 0.0
06/10:30am 31.4 33.7 24.5 67 4.8 WSW 20 26 11 14 1008.0 1007.9 0.0
06/10:00am 31.2 33.6 24.6 68 4.6 WSW 20 24 11 13 1008.6 1008.5 0.0
06/09:30am 31.3 33.6 24.4 66 4.8 SW 20 24 11 13 1008.9 1008.8 0.0
06/09:00am 30.8 32.1 24.0 67 4.7 WSW 24 28 13 15 1009.1 1009.0 0.0
06/08:30am 30.4 32.0 24.5 70 4.1 SW 24 28 13 15 1009.1 1009.0 0.0
06/08:00am 29.9 31.5 24.5 73 3.8 SW 24 32 13 17 1009.0 1008.9 0.0
06/07:30am 29.9 31.1 24.5 73 3.8 SW 26 32 14 17 1008.7 1008.6 0.0
06/07:00am 29.4 29.9 24.0 72 3.7 WSW 28 32 15 17 1008.5 1008.4 0.0
06/06:30am 29.0 29.1 23.9 74 3.5 WSW 30 35 16 19 1008.3 1008.2 0.0
06/06:00am 28.3 29.6 24.1 78 2.9 WSW 24 30 13 16 1007.9 1007.8 0.0
06/05:30am 28.2 29.1 23.3 75 3.4 WSW 24 30 13 16 1007.5 1007.4 0.0
06/05:00am 28.1 29.1 23.5 76 3.2 W 24 32 13 17 1007.3 1007.2 0.0
06/04:30am 28.2 28.6 23.8 77 3.0 W 28 33 15 18 1007.0 1006.9 0.0
06/04:00am 28.2 27.9 23.3 75 3.4 W 30 35 16 19 1007.0 1006.9 0.0
06/03:30am 28.2 28.3 23.3 75 3.4 W 28 32 15 17 1006.9 1006.8 0.0
06/03:00am 28.3 28.5 23.4 75 3.4 W 28 32 15 17 1006.9 1006.8 0.0
06/02:30am 28.3 28.9 23.4 75 3.4 W 26 32 14 17 1007.1 1007.0 0.0
06/02:00am 28.3 29.4 23.0 73 3.6 W 22 30 12 16 1007.3 1007.2 0.0
06/01:30am 28.4 29.6 23.8 76 3.2 W 24 28 13 15 1007.4 1007.3 0.0
06/01:00am 28.4 30.5 23.8 76 3.2 W 19 24 10 13 1008.0 1007.9 0.0
06/12:30am 28.4 30.8 24.2 78 2.9 WSW 19 22 10 12 1008.2 1008.1 0.0
06/12:00am 28.4 30.9 23.8 76 3.2 W 17 20 9 11 1008.6 1008.5 0.0
 
Date/Time
WST
Temp
°C
App
Temp
°C
Dew
Point
Rel
Hum
%
Delta-T
°C
Wind Press
QNH
hPa
Press
MSL
hPa
Rain
since 9 am
mm
Dir
 
Spd
km/h
Gust
km/h
Spd
kts
Gust
kts
05/11:30pm 28.5 30.6 24.1 77 3.0 W 20 24 11 13 1008.9 1008.8 0.0
05/11:00pm 28.5 29.8 23.4 74 3.5 WNW 22 26 12 14 1009.2 1009.1 0.0
05/10:30pm 28.7 29.4 23.6 74 3.5 W 26 30 14 16 1009.2 1009.1 0.0
05/10:00pm 28.6 29.1 23.3 73 3.6 WNW 26 30 14 16 1009.2 1009.1 0.0
05/09:30pm 28.8 28.9 23.2 71 3.8 WNW 28 32 15 17 1009.2 1009.1 0.0
05/09:00pm 28.8 28.9 23.2 71 3.8 WNW 28 32 15 17 1008.8 1008.7 0.0

Other Formats:

Comma delimited format used in spreadsheet applications
http://www.bom.gov.au/fwo/IDW60801/IDW60801.94102.axf

JavaScript Object Notation format (JSON) in row-major order
http://www.bom.gov.au/fwo/IDW60801/IDW60801.94102.json